createdAt,value
2022-11-17T00:02:10.528Z,7.60
2022-11-17T00:05:13.127Z,8.40
2022-11-17T00:08:15.608Z,7.67
2022-11-17T00:11:18.248Z,7.67
2022-11-17T00:14:40.959Z,8.43
2022-11-17T00:17:42.988Z,7.60
2022-11-17T00:21:03.794Z,8.33
2022-11-17T00:24:06.276Z,8.07
2022-11-17T00:27:08.360Z,7.30
2022-11-17T00:30:30.679Z,7.13
2022-11-17T00:33:51.487Z,7.17
2022-11-17T00:36:55.673Z,6.37
2022-11-17T00:40:00.739Z,7.03
2022-11-17T00:43:03.346Z,6.47
2022-11-17T00:46:05.496Z,6.63
2022-11-17T00:49:09.056Z,8.37
2022-11-17T00:52:11.345Z,6.93
2022-11-17T00:55:13.407Z,8.17
2022-11-17T00:58:15.561Z,9.13
2022-11-17T01:01:18.171Z,9.30
2022-11-17T01:04:21.713Z,9.97
2022-11-17T01:07:23.731Z,8.47
2022-11-17T01:10:25.849Z,7.67
2022-11-17T01:13:27.895Z,9.00
2022-11-17T01:16:31.740Z,8.67
2022-11-17T01:19:33.816Z,8.00
2022-11-17T01:22:35.903Z,8.33
2022-11-17T01:25:38.420Z,6.63
2022-11-17T01:28:41.418Z,7.13
2022-11-17T01:31:44.184Z,7.70
2022-11-17T01:34:46.935Z,7.10
2022-11-17T01:37:48.939Z,7.73
2022-11-17T01:40:50.924Z,6.90
2022-11-17T01:43:55.629Z,6.53
2022-11-17T01:47:00.868Z,7.53
2022-11-17T01:50:33.624Z,7.40
2022-11-17T01:53:36.068Z,6.03
2022-11-17T01:56:44.566Z,6.27
2022-11-17T01:59:54.748Z,8.03
2022-11-17T02:02:57.104Z,6.43
2022-11-17T02:06:08.776Z,6.10
2022-11-17T02:09:11.465Z,7.13
2022-11-17T02:12:15.191Z,7.90
2022-11-17T02:15:17.283Z,7.73
2022-11-17T02:18:20.018Z,7.10
2022-11-17T02:21:31.498Z,6.83
2022-11-17T02:24:52.739Z,7.83
2022-11-17T02:28:06.700Z,7.47
2022-11-17T02:31:26.994Z,7.10
2022-11-17T02:34:58.633Z,7.13
2022-11-17T02:38:19.084Z,7.40
2022-11-17T02:41:32.239Z,6.87
2022-11-17T02:44:41.621Z,6.73
2022-11-17T02:47:48.540Z,6.23
2022-11-17T02:50:53.908Z,6.90
2022-11-17T02:53:58.284Z,7.37
2022-11-17T02:57:00.811Z,8.50
2022-11-17T03:00:10.604Z,7.90
2022-11-17T03:03:46.488Z,8.30
2022-11-17T03:07:26.731Z,7.93
2022-11-17T03:11:08.997Z,8.33
2022-11-17T03:14:42.877Z,7.87
2022-11-17T03:18:11.131Z,7.73
2022-11-17T03:21:25.177Z,8.03
2022-11-17T03:24:40.113Z,7.20
2022-11-17T03:27:53.047Z,7.97
2022-11-17T03:30:57.639Z,8.37
2022-11-17T03:34:03.833Z,7.40
2022-11-17T03:37:09.098Z,8.20
2022-11-17T03:40:14.527Z,9.20
2022-11-17T03:43:19.144Z,8.80
2022-11-17T03:46:23.508Z,9.03
2022-11-17T03:49:31.194Z,9.13
2022-11-17T03:52:34.665Z,7.83
2022-11-17T03:56:02.754Z,9.97
2022-11-17T03:59:17.801Z,7.67
2022-11-17T04:02:21.611Z,7.63
2022-11-17T04:05:23.819Z,7.20
2022-11-17T04:08:29.644Z,7.03
2022-11-17T04:11:50.295Z,8.20
2022-11-17T04:15:21.465Z,7.87
2022-11-17T04:18:24.079Z,8.17
2022-11-17T04:21:26.627Z,8.60
2022-11-17T04:24:28.885Z,10.20
2022-11-17T04:27:49.345Z,9.97
2022-11-17T04:30:51.374Z,8.33
2022-11-17T04:34:01.986Z,9.33
2022-11-17T04:37:08.209Z,8.33
2022-11-17T04:40:11.007Z,8.20
2022-11-17T04:43:12.988Z,8.20
2022-11-17T04:46:16.296Z,9.03
2022-11-17T04:49:19.515Z,9.13
2022-11-17T04:52:25.519Z,6.73
2022-11-17T04:55:32.756Z,7.60
2022-11-17T04:58:34.806Z,7.27
2022-11-17T05:01:37.840Z,7.87
2022-11-17T05:04:58.081Z,7.63
2022-11-17T05:08:00.499Z,9.57
2022-11-17T05:11:21.203Z,7.50
2022-11-17T05:14:25.326Z,8.03
2022-11-17T05:17:27.416Z,8.30
2022-11-17T05:20:29.419Z,7.53
2022-11-17T05:23:49.994Z,7.87
2022-11-17T05:26:52.531Z,5.83
2022-11-17T05:29:54.661Z,6.93
2022-11-17T05:32:56.677Z,7.13
2022-11-17T05:35:58.683Z,7.57
2022-11-17T05:39:01.158Z,6.97
2022-11-17T05:42:03.605Z,7.83
2022-11-17T05:45:06.147Z,5.83
2022-11-17T05:48:08.316Z,6.90
2022-11-17T05:51:11.222Z,7.23
2022-11-17T05:54:13.182Z,5.90
2022-11-17T05:57:23.946Z,7.60
2022-11-17T06:00:26.136Z,7.57
2022-11-17T06:03:39.978Z,7.37
2022-11-17T06:06:42.107Z,7.83
2022-11-17T06:09:44.178Z,7.20
2022-11-17T06:12:46.337Z,7.37
2022-11-17T06:15:48.352Z,7.47
2022-11-17T06:19:00.750Z,8.40
2022-11-17T06:22:18.103Z,7.83
2022-11-17T06:25:21.190Z,8.60
2022-11-17T06:28:23.726Z,8.37
2022-11-17T06:31:28.102Z,7.87
2022-11-17T06:34:32.044Z,8.37
2022-11-17T06:37:34.197Z,9.13
2022-11-17T06:40:36.273Z,9.23
2022-11-17T06:43:38.711Z,9.70
2022-11-17T06:46:44.795Z,8.40
2022-11-17T06:49:49.681Z,8.60
2022-11-17T06:52:51.741Z,9.37
2022-11-17T06:56:09.783Z,11.90
2022-11-17T06:59:11.898Z,10.87
2022-11-17T07:02:14.032Z,8.83
2022-11-17T07:05:16.242Z,12.13
2022-11-17T07:08:22.391Z,14.30
2022-11-17T07:11:24.473Z,13.00
2022-11-17T07:14:26.638Z,12.43
2022-11-17T07:17:29.863Z,10.70
2022-11-17T07:20:31.914Z,10.67
2022-11-17T07:23:35.016Z,11.77
2022-11-17T07:26:37.139Z,11.13
2022-11-17T07:29:39.248Z,11.03
2022-11-17T07:32:41.347Z,10.57
2022-11-17T07:35:43.682Z,11.80
2022-11-17T07:38:45.855Z,12.67
2022-11-17T07:41:47.958Z,12.30
2022-11-17T07:44:50.003Z,11.10
2022-11-17T07:47:56.735Z,11.87
2022-11-17T07:50:59.972Z,12.50
2022-11-17T07:54:02.101Z,11.17
2022-11-17T07:57:04.301Z,11.00
2022-11-17T08:00:06.948Z,12.03
2022-11-17T08:03:14.053Z,12.07
2022-11-17T08:06:17.158Z,12.20
2022-11-17T08:09:19.238Z,10.77
2022-11-17T08:12:21.302Z,11.03
2022-11-17T08:15:23.419Z,11.67
2022-11-17T08:18:26.221Z,11.23
2022-11-17T08:21:28.335Z,10.93
2022-11-17T08:24:30.422Z,10.10
2022-11-17T08:27:32.458Z,10.13
2022-11-17T08:30:36.140Z,9.47
2022-11-17T08:33:38.201Z,9.40
2022-11-17T08:36:40.435Z,8.40
2022-11-17T08:39:42.522Z,8.20
2022-11-17T08:42:44.797Z,7.23
2022-11-17T08:45:46.947Z,8.03
2022-11-17T08:48:52.205Z,6.80
2022-11-17T08:51:57.760Z,6.60
2022-11-17T08:54:59.994Z,5.73
2022-11-17T08:58:02.142Z,6.43
2022-11-17T09:01:07.046Z,5.67
2022-11-17T09:04:09.148Z,5.60
2022-11-17T09:07:11.333Z,5.10
2022-11-17T09:10:13.517Z,4.60
2022-11-17T09:13:18.577Z,5.50
2022-11-17T09:16:20.998Z,4.90
2022-11-17T09:19:23.176Z,4.67
2022-11-17T09:22:25.274Z,4.00
2022-11-17T09:25:27.318Z,3.77
2022-11-17T09:28:29.341Z,3.77
2022-11-17T09:31:31.462Z,3.80
2022-11-17T09:34:33.687Z,3.90
2022-11-17T09:37:35.828Z,4.03
2022-11-17T09:40:40.637Z,4.33
2022-11-17T09:43:59.523Z,4.70
2022-11-17T09:47:32.025Z,4.57
2022-11-17T09:50:39.735Z,4.60
2022-11-17T09:54:01.901Z,4.80
2022-11-17T09:57:06.352Z,4.87
2022-11-17T10:00:20.316Z,5.57
2022-11-17T10:03:24.890Z,4.77
2022-11-17T10:06:29.390Z,4.77
2022-11-17T10:09:40.333Z,5.20
2022-11-17T10:12:48.697Z,5.87
2022-11-17T10:15:57.885Z,5.43
2022-11-17T10:19:22.597Z,6.10
2022-11-17T10:22:36.769Z,6.40
2022-11-17T10:25:41.776Z,6.97
2022-11-17T10:28:44.233Z,7.77
2022-11-17T10:31:46.635Z,7.33
2022-11-17T10:34:48.709Z,7.73
2022-11-17T10:38:20.401Z,7.60
2022-11-17T10:41:45.444Z,6.87
2022-11-17T10:44:52.501Z,7.40
2022-11-17T10:48:28.283Z,7.43
2022-11-17T10:51:32.775Z,6.67
2022-11-17T10:54:34.899Z,6.30
2022-11-17T10:57:36.976Z,7.27
2022-11-17T11:00:54.508Z,5.80
2022-11-17T11:03:56.789Z,6.70
2022-11-17T11:07:09.554Z,7.63
2022-11-17T11:10:22.243Z,5.90
2022-11-17T11:13:42.682Z,7.23
2022-11-17T11:16:50.843Z,7.73
2022-11-17T11:19:53.688Z,7.53
2022-11-17T11:23:18.983Z,7.30
2022-11-17T11:26:49.238Z,8.70
2022-11-17T11:30:10.061Z,9.03
2022-11-17T11:33:33.523Z,8.23
2022-11-17T11:37:00.600Z,7.40
2022-11-17T11:40:21.940Z,8.63
2022-11-17T11:43:35.778Z,8.23
2022-11-17T11:47:04.215Z,9.63
2022-11-17T11:50:16.000Z,9.60
2022-11-17T11:54:12.189Z,9.30
2022-11-17T11:57:17.131Z,9.57
2022-11-17T12:00:19.718Z,9.93
2022-11-17T12:03:34.918Z,9.83
2022-11-17T12:07:20.091Z,10.43
2022-11-17T12:10:35.093Z,11.13
2022-11-17T12:13:46.348Z,10.67
2022-11-17T12:17:03.760Z,9.03
2022-11-17T12:20:48.858Z,11.00
2022-11-17T12:24:11.367Z,8.70
2022-11-17T12:27:32.585Z,8.53
2022-11-17T12:30:34.560Z,8.73
2022-11-17T12:34:20.813Z,8.20
2022-11-17T12:37:26.645Z,8.30
2022-11-17T12:40:47.793Z,7.00
2022-11-17T12:43:49.849Z,8.53
2022-11-17T12:47:01.051Z,9.13
2022-11-17T12:50:19.913Z,8.57
2022-11-17T12:53:40.084Z,9.53
2022-11-17T12:57:06.172Z,10.73
2022-11-17T13:00:23.318Z,11.87
2022-11-17T13:03:37.874Z,12.57
2022-11-17T13:06:59.158Z,15.57
2022-11-17T13:10:02.852Z,15.03
2022-11-17T13:13:13.870Z,16.60
2022-11-17T13:16:21.227Z,18.87
2022-11-17T13:19:38.415Z,18.27
2022-11-17T13:22:42.218Z,17.37
2022-11-17T13:25:44.660Z,16.23
2022-11-17T13:28:48.559Z,16.37
2022-11-17T13:31:50.653Z,15.80
2022-11-17T13:35:00.062Z,14.10
2022-11-17T13:38:22.152Z,13.60
2022-11-17T13:41:25.958Z,15.23
2022-11-17T13:44:28.771Z,15.10
2022-11-17T13:47:36.697Z,14.70
2022-11-17T13:50:39.757Z,14.13
2022-11-17T13:53:44.434Z,12.83
2022-11-17T13:56:46.406Z,13.43
2022-11-17T13:59:48.682Z,12.17
2022-11-17T14:02:58.775Z,13.60
2022-11-17T14:06:00.986Z,12.73
2022-11-17T14:09:05.561Z,13.57
2022-11-17T14:12:11.606Z,14.30
2022-11-17T14:15:20.734Z,13.00
2022-11-17T14:18:37.420Z,11.83
2022-11-17T14:21:58.711Z,11.60
2022-11-17T14:25:00.866Z,11.83
2022-11-17T14:28:02.873Z,11.23
2022-11-17T14:31:04.951Z,10.90
2022-11-17T14:34:06.984Z,10.57
2022-11-17T14:37:10.541Z,9.90
2022-11-17T14:40:20.701Z,8.97
2022-11-17T14:43:23.348Z,8.60
2022-11-17T14:46:27.132Z,10.13
2022-11-17T14:49:29.488Z,8.60
2022-11-17T14:52:31.591Z,11.13
2022-11-17T14:55:33.774Z,10.63
2022-11-17T14:58:36.017Z,10.53
2022-11-17T15:01:38.791Z,9.80
2022-11-17T15:04:50.623Z,9.83
2022-11-17T15:07:55.436Z,10.07
2022-11-17T15:10:57.533Z,11.30
2022-11-17T15:14:06.018Z,9.33
2022-11-17T15:17:13.884Z,8.60
2022-11-17T15:20:17.345Z,8.67
2022-11-17T15:23:19.414Z,9.97
2022-11-17T15:26:23.934Z,8.90
2022-11-17T15:29:26.472Z,8.93
2022-11-17T15:32:28.581Z,8.77
2022-11-17T15:35:30.981Z,7.77
2022-11-17T15:38:33.657Z,7.30
2022-11-17T15:41:35.748Z,7.83
2022-11-17T15:44:38.257Z,8.40
2022-11-17T15:47:40.309Z,7.93
2022-11-17T15:50:42.446Z,7.57
2022-11-17T15:53:46.964Z,7.03
2022-11-17T15:56:49.381Z,7.70
2022-11-17T15:59:52.021Z,7.37
2022-11-17T16:02:58.487Z,6.50
2022-11-17T16:06:01.067Z,6.40
2022-11-17T16:09:03.902Z,6.80
2022-11-17T16:12:06.306Z,7.00
2022-11-17T16:15:09.710Z,6.90
2022-11-17T16:18:11.827Z,6.77
2022-11-17T16:21:15.354Z,6.20
2022-11-17T16:24:17.357Z,6.47
2022-11-17T16:27:19.370Z,6.00
2022-11-17T16:30:21.372Z,5.37
2022-11-17T16:33:23.511Z,4.90
2022-11-17T16:36:35.930Z,6.50
2022-11-17T16:39:39.813Z,5.23
2022-11-17T16:42:42.342Z,6.43
2022-11-17T16:45:46.014Z,5.57
2022-11-17T16:48:49.534Z,5.37
2022-11-17T16:51:54.325Z,5.43
2022-11-17T16:55:01.790Z,5.10
2022-11-17T16:58:07.887Z,6.17
2022-11-17T17:01:12.972Z,6.37
2022-11-17T17:04:15.450Z,5.60
2022-11-17T17:07:18.037Z,6.53
2022-11-17T17:10:20.336Z,6.43
2022-11-17T17:13:22.487Z,6.37
2022-11-17T17:16:25.980Z,6.17
2022-11-17T17:19:29.025Z,5.80
2022-11-17T17:22:31.220Z,6.20
2022-11-17T17:25:33.556Z,6.27
2022-11-17T17:28:40.683Z,5.47
2022-11-17T17:31:49.875Z,6.10
2022-11-17T17:34:52.389Z,6.37
2022-11-17T17:37:56.008Z,6.30
2022-11-17T17:41:05.960Z,6.13
2022-11-17T17:44:13.545Z,6.60
2022-11-17T17:47:16.273Z,6.10
2022-11-17T17:50:19.321Z,5.93
2022-11-17T17:53:21.795Z,6.37
2022-11-17T17:56:25.010Z,5.97
2022-11-17T17:59:27.655Z,5.17
2022-11-17T18:02:30.182Z,6.60
2022-11-17T18:05:33.072Z,4.37
2022-11-17T18:08:37.614Z,5.67
2022-11-17T18:11:46.427Z,6.00
2022-11-17T18:14:50.235Z,5.60
2022-11-17T18:17:53.292Z,5.70
2022-11-17T18:21:04.567Z,4.90
2022-11-17T18:24:09.496Z,5.17
2022-11-17T18:27:12.837Z,5.27
2022-11-17T18:30:16.241Z,5.93
2022-11-17T18:33:19.408Z,5.80
2022-11-17T18:36:22.421Z,5.90
2022-11-17T18:39:26.995Z,5.63
2022-11-17T18:42:30.783Z,4.90
2022-11-17T18:45:38.867Z,5.73
2022-11-17T18:48:46.644Z,5.30
2022-11-17T18:51:50.050Z,5.60
2022-11-17T18:54:55.966Z,5.50
2022-11-17T18:57:59.380Z,5.20
2022-11-17T19:01:17.832Z,5.20
2022-11-17T19:04:21.253Z,5.70
2022-11-17T19:07:24.016Z,6.17
2022-11-17T19:10:27.324Z,6.00
2022-11-17T19:13:31.872Z,6.40
2022-11-17T19:16:44.073Z,5.83
2022-11-17T19:19:48.493Z,6.27
2022-11-17T19:22:51.054Z,5.33
2022-11-17T19:25:54.550Z,4.80
2022-11-17T19:28:59.406Z,5.73
2022-11-17T19:32:02.369Z,6.07
2022-11-17T19:35:22.670Z,5.87
2022-11-17T19:38:27.395Z,7.70
2022-11-17T19:41:32.987Z,7.40
2022-11-17T19:44:36.611Z,7.87
2022-11-17T19:47:44.620Z,8.17
2022-11-17T19:50:51.613Z,7.20
2022-11-17T19:54:00.985Z,6.70
2022-11-17T19:57:04.144Z,6.37
2022-11-17T20:00:07.787Z,8.10
2022-11-17T20:03:14.775Z,8.37
2022-11-17T20:06:20.358Z,9.80
2022-11-17T20:09:22.960Z,9.77
2022-11-17T20:12:25.775Z,10.07
2022-11-17T20:15:36.203Z,9.50
2022-11-17T20:18:39.116Z,8.93
2022-11-17T20:21:42.382Z,10.10
2022-11-17T20:24:45.452Z,9.00
2022-11-17T20:27:48.355Z,9.73
2022-11-17T20:30:51.026Z,8.00
2022-11-17T20:34:01.070Z,9.10
2022-11-17T20:37:04.034Z,9.07
2022-11-17T20:40:11.061Z,9.87
2022-11-17T20:43:14.458Z,8.33
2022-11-17T20:46:18.246Z,9.90
2022-11-17T20:49:24.999Z,11.33
2022-11-17T20:52:27.635Z,10.43
2022-11-17T20:55:30.613Z,10.57
2022-11-17T20:58:34.344Z,11.87
2022-11-17T21:01:38.405Z,9.97
2022-11-17T21:04:40.637Z,9.23
2022-11-17T21:07:43.063Z,10.27
2022-11-17T21:10:45.704Z,9.83
2022-11-17T21:13:48.499Z,9.53
2022-11-17T21:16:50.880Z,9.37
2022-11-17T21:19:53.621Z,9.83
2022-11-17T21:22:56.568Z,9.60
2022-11-17T21:26:03.944Z,10.17
2022-11-17T21:29:07.180Z,9.77
2022-11-17T21:32:09.644Z,9.33
2022-11-17T21:35:11.948Z,8.93
2022-11-17T21:38:14.257Z,11.73
2022-11-17T21:41:18.054Z,15.37
2022-11-17T21:44:20.304Z,18.50
2022-11-17T21:47:22.427Z,17.47
2022-11-17T21:50:24.567Z,17.77
2022-11-17T21:53:30.184Z,21.13
2022-11-17T21:56:33.036Z,21.83
2022-11-17T21:59:35.100Z,21.77
2022-11-17T22:02:37.220Z,20.47
2022-11-17T22:05:39.319Z,21.27
2022-11-17T22:08:43.540Z,19.07
2022-11-17T22:11:45.647Z,19.37
2022-11-17T22:14:47.792Z,17.70
2022-11-17T22:17:49.902Z,18.13
2022-11-17T22:20:52.376Z,18.23
2022-11-17T22:23:54.572Z,19.23
2022-11-17T22:26:56.659Z,18.43
2022-11-17T22:29:58.725Z,16.50
2022-11-17T22:33:00.762Z,15.77
2022-11-17T22:36:03.483Z,19.30
2022-11-17T22:39:05.701Z,16.97
2022-11-17T22:42:07.773Z,18.13
2022-11-17T22:45:10.354Z,17.53
2022-11-17T22:48:12.379Z,18.57
2022-11-17T22:51:34.843Z,18.47
2022-11-17T22:54:36.961Z,17.00
2022-11-17T22:57:39.014Z,15.80
2022-11-17T23:00:41.042Z,17.03
2022-11-17T23:03:43.188Z,17.70
2022-11-17T23:06:45.712Z,17.60
2022-11-17T23:09:47.885Z,17.43
2022-11-17T23:12:51.339Z,18.73
2022-11-17T23:15:53.537Z,19.13
2022-11-17T23:18:56.904Z,20.50
2022-11-17T23:21:58.955Z,19.63
2022-11-17T23:25:01.025Z,18.43
2022-11-17T23:28:03.116Z,18.07
2022-11-17T23:31:07.875Z,20.13
2022-11-17T23:34:11.168Z,17.20
2022-11-17T23:37:13.229Z,18.97
2022-11-17T23:40:16.465Z,17.47
2022-11-17T23:43:18.833Z,17.73
2022-11-17T23:46:23.507Z,19.80
2022-11-17T23:49:25.556Z,17.63
2022-11-17T23:52:27.685Z,18.40
2022-11-17T23:55:29.702Z,16.50
2022-11-17T23:58:31.956Z,19.57
